Time;durP1;ratioP1;P1;durP2;ratioP2;P2;SDS_P1;SDS_P2;PMS_P1;PMS_P2;Temp;Humidity;BMP_temperature;BMP_pressure;BME280_temperature;BME280_humidity;BME280_pressure;Samples;Min_cycle;Max_cycle;Signal;HPM_P1;HPM_P2
2022/07/13 00:00:46;;;;;;;3.53;3.20;;;19.90;94.80;;;;;;5053932;28;21017;-54
2022/07/13 00:03:15;;;;;;;2.97;2.53;;;19.70;95.20;;;;;;5053953;28;20496;-54
2022/07/13 00:05:42;;;;;;;3.03;2.73;;;19.60;95.50;;;;;;5054299;28;20481;-54
2022/07/13 00:08:09;;;;;;;2.80;2.60;;;19.70;95.90;;;;;;5053856;28;20784;-54
2022/07/13 00:10:36;;;;;;;4.40;3.30;;;19.80;96.20;;;;;;5053671;28;20485;-54
2022/07/13 00:13:03;;;;;;;10.30;2.70;;;19.90;96.10;;;;;;5053880;28;20535;-54
2022/07/13 00:15:30;;;;;;;3.63;2.80;;;19.90;96.50;;;;;;5053768;28;20454;-55
2022/07/13 00:17:57;;;;;;;4.00;3.07;;;19.90;96.10;;;;;;5053695;28;20445;-54
2022/07/13 00:20:27;;;;;;;4.87;3.10;;;19.80;96.40;;;;;;5053745;28;20548;-54
2022/07/13 00:22:54;;;;;;;3.77;2.90;;;19.50;96.90;;;;;;5053894;28;20449;-54
2022/07/13 00:25:22;;;;;;;4.07;3.20;;;19.50;97.20;;;;;;5053519;28;20515;-54
2022/07/13 00:27:49;;;;;;;3.13;2.80;;;19.50;97.30;;;;;;5053858;28;20532;-54
2022/07/13 00:30:16;;;;;;;3.07;2.77;;;19.40;97.80;;;;;;5053568;28;20507;-54
2022/07/13 00:32:43;;;;;;;4.60;3.33;;;19.70;98.10;;;;;;5053347;28;20929;-54
2022/07/13 00:35:10;;;;;;;2.93;2.57;;;19.70;98.10;;;;;;5053768;28;20820;-54
2022/07/13 00:37:39;;;;;;;4.17;2.27;;;19.80;98.30;;;;;;5053906;28;20480;-54
2022/07/13 00:40:07;;;;;;;2.93;2.30;;;19.80;98.00;;;;;;5053088;28;20483;-54
2022/07/13 00:42:34;;;;;;;3.80;2.33;;;19.50;98.30;;;;;;5053479;28;20486;-54
2022/07/13 00:45:02;;;;;;;3.60;3.20;;;19.40;98.70;;;;;;5053366;28;20445;-54
2022/07/13 00:47:34;;;;;;;2.80;2.60;;;19.30;99.00;;;;;;5053130;28;20463;-54
2022/07/13 00:50:02;;;;;;;4.70;3.20;;;19.30;99.30;;;;;;5053307;28;20521;-55
2022/07/13 00:52:30;;;;;;;3.07;2.70;;;19.20;99.50;;;;;;5053526;28;20452;-54
2022/07/13 00:54:59;;;;;;;3.17;2.87;;;;;;;;;;5053060;28;20449;-55
2022/07/13 00:57:28;;;;;;;6.43;3.47;;;19.10;99.90;;;;;;5053221;28;20520;-54
2022/07/13 00:59:55;;;;;;;4.20;3.80;;;19.10;99.90;;;;;;5053016;28;20468;-54
2022/07/13 01:02:22;;;;;;;3.10;2.80;;;19.00;99.90;;;;;;5052973;28;20810;-55
2022/07/13 01:04:50;;;;;;;4.17;3.13;;;19.00;99.90;;;;;;5053100;28;20552;-54
2022/07/13 01:07:17;;;;;;;3.47;2.97;;;19.00;99.90;;;;;;5053426;28;20430;-54
2022/07/13 01:09:45;;;;;;;3.93;3.50;;;19.10;99.90;;;;;;5052850;28;20465;-54
2022/07/13 01:12:13;;;;;;;3.90;2.87;;;19.20;99.90;;;;;;5053124;28;20449;-54
2022/07/13 01:14:41;;;;;;;3.07;2.43;;;19.00;99.90;;;;;;5053255;28;20453;-54
2022/07/13 01:17:09;;;;;;;3.63;2.77;;;18.90;99.90;;;;;;5053265;28;20524;-55
2022/07/13 01:19:37;;;;;;;2.93;2.73;;;18.80;99.90;;;;;;5052975;28;20469;-54
2022/07/13 01:22:05;;;;;;;2.83;2.33;;;18.80;99.90;;;;;;5052756;28;20944;-54
2022/07/13 01:24:34;;;;;;;2.93;2.57;;;18.90;99.90;;;;;;5052832;28;20544;-54
2022/07/13 01:27:02;;;;;;;3.80;2.70;;;19.10;99.90;;;;;;5052621;28;20536;-54
2022/07/13 01:29:29;;;;;;;2.97;2.77;;;19.10;99.90;;;;;;5052832;28;20472;-54
2022/07/13 01:32:00;;;;;;;2.97;2.50;;;19.10;99.90;;;;;;5052911;28;20489;-54
2022/07/13 01:34:28;;;;;;;5.20;3.80;;;19.10;99.90;;;;;;5053158;28;20442;-54
2022/07/13 01:36:56;;;;;;;3.30;2.90;;;19.10;99.90;;;;;;5053348;28;20549;-54
2022/07/13 01:39:23;;;;;;;6.40;2.97;;;19.10;99.90;;;;;;5056793;28;20527;-54
2022/07/13 01:41:51;;;;;;;12.00;2.93;;;18.90;99.90;;;;;;5056778;28;20987;-54
2022/07/13 01:44:19;;;;;;;2.83;2.50;;;18.70;99.90;;;;;;5056955;28;20589;-54
2022/07/13 01:46:46;;;;;;;3.23;2.63;;;18.80;99.90;;;;;;5056644;28;20452;-54
2022/07/13 01:49:13;;;;;;;3.80;2.90;;;18.90;99.90;;;;;;5056938;28;20449;-54
2022/07/13 01:51:41;;;;;;;4.23;3.70;;;19.10;99.90;;;;;;5056431;28;20485;-54
2022/07/13 01:54:08;;;;;;;3.33;2.63;;;19.30;99.90;;;;;;5056384;28;20449;-54
2022/07/13 01:56:36;;;;;;;2.60;2.40;;;19.00;99.90;;;;;;5056460;28;20532;-54
2022/07/13 01:59:04;;;;;;;2.70;2.50;;;18.90;99.90;;;;;;5056364;28;20441;-55
2022/07/13 02:01:32;;;;;;;2.70;2.50;;;18.80;99.90;;;;;;5056668;28;20523;-54
2022/07/13 02:03:59;;;;;;;2.97;2.50;;;18.80;99.90;;;;;;5056373;28;21010;-54
2022/07/13 02:06:26;;;;;;;4.97;3.33;;;18.80;99.90;;;;;;5056605;28;20469;-54
2022/07/13 02:08:53;;;;;;;6.33;2.50;;;18.80;99.90;;;;;;5056062;28;20445;-54
2022/07/13 02:11:21;;;;;;;3.93;2.53;;;18.80;99.90;;;;;;5056410;28;20568;-54
2022/07/13 02:13:48;;;;;;;5.53;3.17;;;18.90;99.90;;;;;;5056358;28;20545;-54
2022/07/13 02:16:17;;;;;;;3.13;2.83;;;18.80;99.90;;;;;;5056352;28;20532;-54
2022/07/13 02:18:45;;;;;;;3.80;2.73;;;18.80;99.90;;;;;;5056108;28;20885;-54
2022/07/13 02:21:12;;;;;;;3.40;3.00;;;18.80;99.90;;;;;;5056227;28;20476;-54
2022/07/13 02:23:40;;;;;;;2.83;2.63;;;18.90;99.90;;;;;;5056189;28;20548;-54
2022/07/13 02:26:07;;;;;;;3.10;2.30;;;19.00;99.90;;;;;;5056208;28;20532;-54
2022/07/13 02:28:34;;;;;;;2.63;2.40;;;18.80;99.90;;;;;;5055926;28;20807;-54
2022/07/13 02:31:02;;;;;;;3.67;3.33;;;18.70;99.90;;;;;;5055527;28;20480;-54
2022/07/13 02:33:30;;;;;;;5.00;2.70;;;18.70;99.90;;;;;;5055725;28;20940;-54
2022/07/13 02:35:57;;;;;;;2.73;2.30;;;18.70;99.90;;;;;;5055918;28;20530;-54
2022/07/13 02:38:24;;;;;;;3.30;2.70;;;18.90;99.90;;;;;;5055603;28;20889;-54
2022/07/13 02:40:52;;;;;;;2.33;2.13;;;19.00;99.90;;;;;;5055438;28;20477;-54
2022/07/13 02:43:19;;;;;;;2.97;2.67;;;19.10;99.90;;;;;;5056142;28;20471;-54
2022/07/13 02:45:46;;;;;;;3.27;2.30;;;19.20;99.90;;;;;;5055762;28;20481;-54
2022/07/13 02:48:13;;;;;;;2.73;2.37;;;19.20;99.90;;;;;;5055536;28;20453;-54
2022/07/13 02:50:42;;;;;;;4.03;2.50;;;19.20;99.90;;;;;;5055343;28;20481;-55
2022/07/13 02:53:09;;;;;;;3.67;2.50;;;19.20;99.90;;;;;;5055263;28;20859;-54
2022/07/13 02:55:36;;;;;;;2.70;2.50;;;18.90;99.90;;;;;;5055314;28;20456;-55
2022/07/13 02:58:03;;;;;;;4.33;2.23;;;18.90;99.90;;;;;;5055568;28;20455;-54
2022/07/13 03:00:31;;;;;;;3.23;3.00;;;18.80;99.90;;;;;;5055326;28;20564;-54
2022/07/13 03:02:58;;;;;;;4.10;2.80;;;18.80;99.90;;;;;;5055107;28;20528;-54
2022/07/13 03:05:25;;;;;;;2.90;2.70;;;18.70;99.90;;;;;;5055556;28;20437;-54
2022/07/13 03:07:53;;;;;;;4.30;2.17;;;18.80;99.90;;;;;;5055349;28;20984;-54
2022/07/13 03:10:21;;;;;;;3.00;2.70;;;18.90;99.90;;;;;;5054905;28;20465;-54
2022/07/13 03:12:48;;;;;;;3.13;2.33;;;18.50;99.90;;;;;;5055426;28;20445;-54
2022/07/13 03:15:15;;;;;;;2.70;2.40;;;18.50;99.90;;;;;;5055212;28;20448;-54
2022/07/13 03:17:42;;;;;;;2.70;2.43;;;18.50;99.90;;;;;;5054874;28;20944;-54
2022/07/13 03:20:11;;;;;;;3.13;2.40;;;18.40;99.90;;;;;;5054909;28;20478;-54
2022/07/13 03:22:38;;;;;;;3.03;2.70;;;18.50;99.90;;;;;;5054851;28;20982;-54
2022/07/13 03:25:08;;;;;;;7.53;2.50;;;18.60;99.90;;;;;;5054846;28;20524;-54
2022/07/13 03:27:35;;;;;;;2.63;2.43;;;18.60;99.90;;;;;;5054595;28;21011;-54
2022/07/13 03:30:03;;;;;;;4.80;2.47;;;18.70;99.90;;;;;;5054711;28;21015;-54
2022/07/13 03:32:30;;;;;;;2.67;2.47;;;18.70;99.90;;;;;;5054506;28;20572;-54
2022/07/13 03:34:57;;;;;;;3.47;2.70;;;18.70;99.90;;;;;;5054781;28;20454;-54
2022/07/13 03:37:24;;;;;;;2.23;2.03;;;18.70;99.90;;;;;;5054990;28;20432;-54
2022/07/13 03:39:52;;;;;;;2.83;2.53;;;18.70;99.90;;;;;;5053233;28;20564;-55
2022/07/13 03:42:20;;;;;;;7.70;2.63;;;18.80;99.90;;;;;;5054730;28;20540;-55
2022/07/13 03:44:48;;;;;;;2.73;2.50;;;18.80;99.90;;;;;;5054450;28;20553;-54
2022/07/13 03:47:15;;;;;;;2.57;2.37;;;18.80;99.90;;;;;;5054308;28;20481;-55
2022/07/13 03:49:42;;;;;;;4.67;2.67;;;18.90;99.90;;;;;;5054493;28;20469;-54
2022/07/13 03:52:09;;;;;;;2.83;1.97;;;18.90;99.90;;;;;;5054513;28;20484;-54
2022/07/13 03:54:36;;;;;;;5.93;2.37;;;18.80;99.90;;;;;;5054194;28;20479;-54
2022/07/13 03:57:04;;;;;;;2.90;2.70;;;18.80;99.90;;;;;;5054048;28;20552;-55
2022/07/13 03:59:32;;;;;;;2.63;2.43;;;18.70;99.90;;;;;;5054032;28;20548;-55
2022/07/13 04:01:59;;;;;;;2.90;2.63;;;18.60;99.90;;;;;;5054145;28;20936;-55
2022/07/13 04:04:27;;;;;;;3.33;2.90;;;18.50;99.90;;;;;;5054230;28;20537;-55
2022/07/13 04:06:54;;;;;;;2.70;2.43;;;18.40;99.90;;;;;;5054506;28;20797;-55
2022/07/13 04:09:22;;;;;;;3.60;2.50;;;18.40;99.90;;;;;;5054065;28;20449;-54
2022/07/13 04:11:49;;;;;;;3.33;2.60;;;18.50;99.90;;;;;;5053947;28;20477;-54
2022/07/13 04:14:16;;;;;;;2.53;2.33;;;18.60;99.90;;;;;;5054202;28;20457;-55
2022/07/13 04:16:45;;;;;;;3.50;2.60;;;18.60;99.90;;;;;;5054290;28;20445;-54
2022/07/13 04:19:12;;;;;;;3.13;2.33;;;18.40;99.90;;;;;;5053710;28;20570;-54
2022/07/13 04:21:39;;;;;;;3.13;2.83;;;18.20;99.90;;;;;;5053582;28;20469;-54
2022/07/13 04:24:07;;;;;;;3.40;2.43;;;18.20;99.90;;;;;;5053620;28;20445;-54
2022/07/13 04:26:34;;;;;;;5.63;2.87;;;18.20;99.90;;;;;;5053623;28;20556;-54
2022/07/13 04:29:01;;;;;;;2.50;2.30;;;18.10;99.90;;;;;;5053509;28;20426;-54
2022/07/13 04:31:28;;;;;;;2.80;2.37;;;18.20;99.90;;;;;;5053677;28;20491;-54
2022/07/13 04:33:57;;;;;;;3.80;3.47;;;18.20;99.90;;;;;;5053366;28;20532;-54
2022/07/13 04:36:24;;;;;;;4.50;2.37;;;18.20;99.90;;;;;;5053562;28;20547;-54
2022/07/13 04:38:51;;;;;;;2.93;2.47;;;18.20;99.90;;;;;;5053425;28;20862;-54
2022/07/13 04:41:19;;;;;;;2.80;2.60;;;18.40;99.90;;;;;;5053509;28;20465;-54
2022/07/13 04:43:46;;;;;;;3.50;2.87;;;18.40;99.90;;;;;;5053294;28;20540;-54
2022/07/13 04:46:13;;;;;;;2.97;2.63;;;18.40;99.90;;;;;;5053339;28;20927;-54
2022/07/13 04:48:40;;;;;;;3.93;2.70;;;18.30;99.90;;;;;;5053316;28;20449;-54
2022/07/13 04:51:09;;;;;;;3.07;2.73;;;18.40;99.90;;;;;;5053258;28;20492;-54
2022/07/13 04:53:36;;;;;;;4.10;2.40;;;18.50;99.90;;;;;;5053192;28;20511;-54
2022/07/13 04:56:04;;;;;;;3.37;2.37;;;18.50;99.90;;;;;;5053018;28;20489;-54
2022/07/13 04:58:32;;;;;;;4.47;4.03;;;18.60;99.90;;;;;;5052716;28;20561;-55
2022/07/13 05:01:00;;;;;;;2.90;2.70;;;18.60;99.90;;;;;;5052979;28;20542;-55
2022/07/13 05:03:27;;;;;;;3.30;3.00;;;18.60;99.90;;;;;;5053106;28;20449;-55
2022/07/13 05:05:55;;;;;;;2.97;2.77;;;18.70;99.90;;;;;;5052859;28;20560;-54
2022/07/13 05:08:23;;;;;;;3.53;3.13;;;18.80;99.90;;;;;;5053051;28;20441;-54
2022/07/13 05:10:50;;;;;;;2.53;2.33;;;18.80;99.90;;;;;;5053084;28;20504;-54
2022/07/13 05:13:18;;;;;;;3.57;2.67;;;18.90;99.90;;;;;;5051851;28;20536;-54
2022/07/13 05:15:45;;;;;;;3.33;2.67;;;18.90;99.90;;;;;;5052819;28;20445;-55
2022/07/13 05:18:13;;;;;;;2.90;2.60;;;19.00;99.90;;;;;;5053194;28;20795;-54
2022/07/13 05:20:40;;;;;;;4.73;3.23;;;19.00;99.90;;;;;;5052755;28;20481;-54
2022/07/13 05:23:07;;;;;;;4.63;2.47;;;19.10;99.90;;;;;;5052905;28;20441;-54
2022/07/13 05:25:36;;;;;;;3.87;3.30;;;19.10;99.90;;;;;;5052718;28;20488;-54
2022/07/13 05:28:03;;;;;;;2.30;2.03;;;19.10;99.90;;;;;;5052573;28;20437;-54
2022/07/13 05:30:31;;;;;;;5.33;2.97;;;19.20;99.90;;;;;;5052454;28;20465;-54
2022/07/13 05:32:58;;;;;;;3.93;2.97;;;19.30;99.90;;;;;;5052795;28;20503;-54
2022/07/13 05:35:25;;;;;;;2.40;2.20;;;19.30;99.90;;;;;;5052702;28;20461;-54
2022/07/13 05:37:53;;;;;;;4.80;2.57;;;19.40;99.90;;;;;;5052454;28;20506;-54
2022/07/13 05:40:22;;;;;;;3.57;3.27;;;19.50;99.90;;;;;;5052333;28;20853;-55
2022/07/13 05:42:52;;;;;;;3.30;3.00;;;19.50;99.90;;;;;;5052163;28;20445;-54
2022/07/13 05:45:20;;;;;;;4.93;2.43;;;19.70;99.90;;;;;;5052652;28;20528;-55
2022/07/13 05:47:47;;;;;;;4.80;2.67;;;19.90;99.90;;;;;;5052680;28;20475;-54
2022/07/13 05:50:14;;;;;;;5.03;3.00;;;20.00;99.90;;;;;;5052251;28;20464;-54
2022/07/13 05:52:42;;;;;;;7.83;2.87;;;20.20;99.90;;;;;;5051992;28;20576;-54
2022/07/13 05:55:09;;;;;;;8.73;2.70;;;20.20;99.90;;;;;;5052653;28;20477;-54
2022/07/13 05:57:37;;;;;;;2.77;2.57;;;20.10;99.90;;;;;;5052575;28;20483;-54
2022/07/13 06:00:11;;;;;;;3.40;2.30;;;20.10;99.90;;;;;;5052093;28;20469;-54
2022/07/13 06:02:39;;;;;;;4.20;2.47;;;20.20;99.90;;;;;;5052581;28;20859;-55
2022/07/13 06:05:07;;;;;;;3.37;2.53;;;20.20;99.90;;;;;;5052578;28;20455;-54
2022/07/13 06:07:35;;;;;;;5.50;2.20;;;20.30;99.90;;;;;;5052351;28;20437;-54
2022/07/13 06:10:02;;;;;;;2.90;2.60;;;20.30;99.90;;;;;;5052413;28;20474;-55
2022/07/13 06:12:29;;;;;;;4.60;3.17;;;20.50;99.90;;;;;;5052498;28;21008;-55
2022/07/13 06:14:57;;;;;;;4.10;2.60;;;20.60;99.90;;;;;;5052377;28;20444;-54
2022/07/13 06:17:25;;;;;;;4.83;2.57;;;20.80;99.90;;;;;;5052356;28;20575;-55
2022/07/13 06:19:52;;;;;;;3.40;3.10;;;20.90;99.90;;;;;;5052238;28;20875;-55
2022/07/13 06:22:20;;;;;;;3.00;2.70;;;21.10;99.90;;;;;;5052476;28;20797;-54
2022/07/13 06:24:47;;;;;;;7.00;2.80;;;21.20;99.90;;;;;;5055232;28;20433;-54
2022/07/13 06:27:16;;;;;;;6.90;2.93;;;21.20;99.90;;;;;;5055988;28;20472;-55
2022/07/13 06:29:44;;;;;;;6.40;3.20;;;21.40;99.90;;;;;;5056026;28;20561;-55
2022/07/13 06:32:11;;;;;;;4.07;3.13;;;21.50;99.90;;;;;;5055398;28;20857;-55
2022/07/13 06:34:40;;;;;;;3.93;2.60;;;21.70;99.90;;;;;;5055719;28;20444;-55
2022/07/13 06:37:08;;;;;;;4.23;3.00;;;21.80;99.90;;;;;;5055811;28;20453;-54
2022/07/13 06:39:38;;;;;;;2.93;2.57;;;21.90;99.90;;;;;;5055157;28;20484;-55
2022/07/13 06:42:05;;;;;;;5.50;3.27;;;22.10;99.90;;;;;;5055308;28;20445;-54
2022/07/13 06:44:32;;;;;;;3.90;3.00;;;22.30;99.90;;;;;;5055717;28;20449;-54
2022/07/13 06:47:00;;;;;;;4.87;3.20;;;22.30;99.90;;;;;;5055094;28;20484;-55
2022/07/13 06:49:27;;;;;;;6.90;3.43;;;22.40;99.90;;;;;;5055080;28;20449;-55
2022/07/13 06:51:56;;;;;;;6.43;3.53;;;22.60;99.90;;;;;;5055326;28;20481;-54
2022/07/13 06:54:23;;;;;;;8.07;3.10;;;22.70;99.90;;;;;;5055430;28;20445;-55
2022/07/13 06:56:50;;;;;;;3.90;2.77;;;22.90;99.90;;;;;;5055344;28;20844;-55
2022/07/13 06:59:18;;;;;;;4.33;3.00;;;23.20;99.90;;;;;;5054620;28;20481;-55
2022/07/13 07:01:45;;;;;;;7.60;2.87;;;23.30;99.90;;;;;;5055606;28;20979;-55
2022/07/13 07:04:12;;;;;;;6.73;2.93;;;23.20;99.90;;;;;;5055183;28;20445;-54
2022/07/13 07:06:39;;;;;;;3.03;2.77;;;23.20;99.90;;;;;;5055250;28;20485;-54
2022/07/13 07:09:08;;;;;;;4.90;3.07;;;23.10;99.90;;;;;;5055091;28;20540;-54
2022/07/13 07:11:35;;;;;;;3.93;3.20;;;23.10;99.90;;;;;;5054925;28;20453;-55
2022/07/13 07:14:03;;;;;;;6.73;3.43;;;23.00;99.90;;;;;;5054673;28;20525;-55
2022/07/13 07:16:30;;;;;;;4.17;2.80;;;23.10;99.90;;;;;;5054832;28;20449;-55
2022/07/13 07:18:57;;;;;;;4.40;3.00;;;23.60;99.90;;;;;;5055071;28;20449;-55
2022/07/13 07:21:24;;;;;;;3.23;2.60;;;24.40;99.90;;;;;;5054854;28;20524;-55
2022/07/13 07:23:51;;;;;;;4.73;2.70;;;24.90;97.80;;;;;;5054875;28;20447;-55
2022/07/13 07:26:20;;;;;;;3.50;2.73;;;25.40;97.80;;;;;;5054615;28;20490;-55
2022/07/13 07:28:48;;;;;;;3.60;2.27;;;25.90;96.20;;;;;;5054753;28;20461;-56
2022/07/13 07:31:15;;;;;;;5.80;2.60;;;26.30;95.60;;;;;;5054935;28;20475;-55
2022/07/13 07:33:42;;;;;;;4.30;2.13;;;26.60;94.40;;;;;;5054360;28;20580;-54
2022/07/13 07:36:09;;;;;;;3.83;2.40;;;27.30;93.20;;;;;;5053222;28;20548;-55
2022/07/13 07:38:37;;;;;;;2.43;2.10;;;27.80;91.90;;;;;;5054453;28;20445;-55
2022/07/13 07:41:04;;;;;;;3.53;3.20;;;;;;;;;;5053936;28;21027;-55
2022/07/13 07:43:33;;;;;;;3.70;2.60;;;28.20;90.30;;;;;;5054314;28;20533;-55
2022/07/13 07:46:00;;;;;;;4.80;1.90;;;28.30;89.40;;;;;;5054228;28;20456;-55
2022/07/13 07:48:27;;;;;;;6.03;2.60;;;28.60;86.90;;;;;;5053779;28;20476;-55
2022/07/13 07:50:54;;;;;;;3.00;2.00;;;29.20;86.50;;;;;;5053803;28;20472;-55
2022/07/13 07:53:22;;;;;;;1.93;1.77;;;29.90;83.20;;;;;;5054122;28;20484;-56
2022/07/13 07:55:49;;;;;;;2.87;2.20;;;30.30;82.00;;;;;;5053825;28;20440;-56
2022/07/13 07:58:16;;;;;;;3.40;2.00;;;30.20;81.20;;;;;;5053596;28;20531;-56
2022/07/13 08:00:45;;;;;;;11.00;2.33;;;;;;;;;;5053631;28;20984;-55
2022/07/13 08:03:13;;;;;;;3.20;2.40;;;29.80;77.00;;;;;;5053807;28;20452;-55
2022/07/13 08:05:42;;;;;;;3.63;2.20;;;29.80;80.60;;;;;;5053598;28;20605;-55
2022/07/13 08:08:09;;;;;;;5.40;2.07;;;29.50;80.70;;;;;;5053979;28;20448;-55
2022/07/13 08:10:37;;;;;;;3.30;1.90;;;29.20;81.70;;;;;;5053893;28;20556;-60
2022/07/13 08:13:05;;;;;;;3.10;2.10;;;29.10;81.40;;;;;;5053786;28;20498;-55
2022/07/13 08:15:33;;;;;;;6.77;2.37;;;28.70;81.00;;;;;;5053332;28;20849;-56
2022/07/13 08:18:02;;;;;;;4.27;2.43;;;28.30;80.90;;;;;;5053864;28;20526;-56
2022/07/13 08:20:30;;;;;;;7.67;2.13;;;28.20;80.00;;;;;;5053300;28;20471;-56
2022/07/13 08:22:57;;;;;;;3.80;1.93;;;28.30;81.20;;;;;;5053622;28;20495;-57
2022/07/13 08:25:24;;;;;;;6.83;2.50;;;28.20;79.90;;;;;;5053542;28;20481;-56
2022/07/13 08:27:52;;;;;;;2.80;2.17;;;28.30;82.60;;;;;;5053094;28;20434;-56
2022/07/13 08:30:20;;;;;;;2.63;2.30;;;28.20;83.30;;;;;;5053266;28;20558;-56
2022/07/13 08:32:47;;;;;;;6.40;2.40;;;28.00;82.90;;;;;;5053674;28;20527;-56
2022/07/13 08:40:45;;;;;;;8.03;2.47;;;28.50;84.90;;;;;;5052555;28;20529;-56
2022/07/13 08:43:12;;;;;;;5.40;2.53;;;28.50;85.30;;;;;;5052928;28;20457;-56
2022/07/13 08:45:41;;;;;;;32.40;4.50;;;28.70;84.00;;;;;;5052900;28;20453;-58
2022/07/13 08:48:22;;;;;;;3.20;2.27;;;28.80;81.50;;;;;;5053404;28;20453;-56
2022/07/13 08:50:51;;;;;;;5.37;2.23;;;29.00;82.60;;;;;;5052949;28;20527;-56
2022/07/13 08:53:18;;;;;;;6.63;2.77;;;29.00;80.00;;;;;;5052889;28;20579;-56
2022/07/13 08:55:45;;;;;;;4.47;2.17;;;29.50;81.00;;;;;;5052872;28;20981;-56
2022/07/13 08:58:15;;;;;;;5.30;2.10;;;29.60;77.00;;;;;;5053260;28;20524;-56
2022/07/13 09:00:42;;;;;;;4.33;2.20;;;30.10;77.20;;;;;;5052702;28;20908;-56
2022/07/13 09:03:10;;;;;;;3.67;1.67;;;30.00;73.00;;;;;;5052873;28;20441;-56
2022/07/13 09:05:38;;;;;;;2.77;1.83;;;30.30;70.50;;;;;;5052907;28;20449;-56
2022/07/13 09:08:08;;;;;;;3.27;2.00;;;29.80;68.90;;;;;;5052725;28;21005;-56
2022/07/13 09:10:52;;;;;;;2.30;2.00;;;30.10;69.30;;;;;;5052675;28;20491;-56
2022/07/13 09:13:38;;;;;;;5.00;1.80;;;30.00;69.50;;;;;;5052540;28;20465;-56
2022/07/13 09:16:17;;;;;;;1.80;1.70;;;30.10;67.90;;;;;;5052482;28;20476;-56
2022/07/13 09:18:44;;;;;;;4.50;1.80;;;30.20;64.10;;;;;;5052649;28;20985;-56
2022/07/13 09:21:12;;;;;;;4.60;1.53;;;30.80;63.60;;;;;;5052504;28;20550;-56
2022/07/13 09:23:42;;;;;;;3.47;1.40;;;;;;;;;;5052758;28;20503;-56
2022/07/13 09:26:09;;;;;;;1.80;1.50;;;31.50;59.20;;;;;;5052420;28;20457;-56
2022/07/13 09:28:44;;;;;;;1.73;1.40;;;32.50;59.20;;;;;;5052492;28;20448;-56
2022/07/13 09:31:12;;;;;;;2.37;1.30;;;32.80;58.00;;;;;;5052993;28;20460;-56
2022/07/13 09:33:40;;;;;;;3.03;1.50;;;33.40;57.50;;;;;;5052277;28;21041;-57
2022/07/13 09:36:12;;;;;;;1.30;1.20;;;33.20;56.30;;;;;;5052942;28;20489;-56
2022/07/13 09:38:42;;;;;;;2.43;1.60;;;33.00;54.10;;;;;;5053127;28;20518;-56
2022/07/13 09:41:22;;;;;;;2.60;1.63;;;33.80;55.50;;;;;;5052327;28;20590;-56
2022/07/13 09:46:53;;;;;;;1.90;1.50;;;33.90;53.90;;;;;;5052499;28;20403;-57
2022/07/13 09:49:30;;;;;;;2.23;1.80;;;34.00;51.90;;;;;;5052242;28;20884;-57
2022/07/13 09:51:58;;;;;;;3.17;1.30;;;34.20;50.80;;;;;;5052093;28;20420;-57
2022/07/13 09:54:29;;;;;;;1.97;1.60;;;34.80;51.60;;;;;;5052430;28;20484;-57
2022/07/13 09:56:59;;;;;;;2.57;1.43;;;35.00;51.00;;;;;;5052378;28;20972;-57
2022/07/13 09:59:27;;;;;;;1.97;1.50;;;34.40;49.60;;;;;;5054855;28;20467;-56
2022/07/13 10:01:55;;;;;;;2.73;1.90;;;34.00;50.60;;;;;;5056387;28;20531;-57
2022/07/13 10:04:28;;;;;;;2.50;1.67;;;33.90;49.90;;;;;;5056637;28;20539;-56
2022/07/13 10:06:55;;;;;;;1.63;1.53;;;34.10;50.00;;;;;;5056438;28;20478;-57
2022/07/13 10:09:24;;;;;;;5.50;3.10;;;34.80;57.80;;;;;;5055805;28;20535;-56
2022/07/13 10:11:52;;;;;;;1.50;1.30;;;35.10;54.30;;;;;;5055767;28;20445;-56
2022/07/13 10:14:20;;;;;;;2.70;1.30;;;34.50;47.70;;;;;;5055850;28;20483;-56
2022/07/13 10:16:49;;;;;;;1.77;1.33;;;34.70;49.40;;;;;;5056248;28;20449;-56
2022/07/13 10:19:17;;;;;;;1.70;1.53;;;34.50;48.20;;;;;;5055734;28;20455;-56
2022/07/13 10:22:04;;;;;;;1.87;1.50;;;34.30;47.90;;;;;;5056209;28;20475;-56
2022/07/13 10:24:32;;;;;;;1.33;1.23;;;34.60;47.80;;;;;;5053484;28;20547;-56
2022/07/13 10:27:26;;;;;;;2.03;1.20;;;34.60;47.30;;;;;;5055562;28;20535;-57
2022/07/13 10:29:55;;;;;;;1.37;1.20;;;35.10;46.80;;;;;;5055814;28;20473;-56
2022/07/13 10:32:23;;;;;;;3.97;1.70;;;36.40;47.70;;;;;;5055555;28;20451;-56
2022/07/13 10:34:53;;;;;;;3.93;1.60;;;36.70;46.20;;;;;;5055499;28;20572;-56
2022/07/13 10:37:21;;;;;;;1.50;1.30;;;36.10;46.60;;;;;;5056082;28;20471;-56
2022/07/13 10:40:10;;;;;;;2.67;1.40;;;35.60;45.20;;;;;;5055209;28;20837;-56
2022/07/13 10:43:13;;;;;;;2.30;1.47;;;36.20;46.60;;;;;;5055673;28;20502;-56
2022/07/13 10:45:43;;;;;;;2.53;1.30;;;36.90;45.40;;;;;;4994196;28;20450;-56
2022/07/13 10:48:47;;;;;;;2.70;1.47;;;36.00;43.60;;;;;;4994030;28;20535;-57
2022/07/13 10:51:23;;;;;;;3.33;1.20;;;36.10;43.40;;;;;;4994442;28;20865;-56
2022/07/13 10:54:10;;;;;;;8.77;1.40;;;36.30;41.60;;;;;;5024138;28;20476;-58
2022/07/13 10:56:38;;;;;;;2.70;1.20;;;36.70;43.60;;;;;;5055429;28;20432;-57
2022/07/13 10:59:07;;;;;;;5.30;1.50;;;36.30;42.60;;;;;;5055111;28;20539;-57
2022/07/13 11:01:44;;;;;;;1.70;1.40;;;36.30;43.10;;;;;;5055453;28;20449;-57
2022/07/13 11:04:15;;;;;;;1.40;1.30;;;35.80;41.40;;;;;;5055397;28;20425;-57
2022/07/13 11:06:43;;;;;;;3.63;1.27;;;36.00;42.20;;;;;;5055783;28;20464;-57
2022/07/13 11:09:18;;;;;;;1.40;1.30;;;36.10;43.90;;;;;;5054795;28;20457;-54
2022/07/13 11:11:50;;;;;;;1.50;1.30;;;36.20;42.30;;;;;;5055101;28;20464;-56
2022/07/13 11:14:59;;;;;;;1.27;1.17;;;36.20;40.80;;;;;;5054761;28;20555;-56
2022/07/13 11:17:28;;;;;;;4.50;1.50;;;36.30;39.90;;;;;;5055131;28;20429;-56
2022/07/13 11:20:00;;;;;;;1.90;1.47;;;36.80;40.50;;;;;;5054675;28;20500;-56
2022/07/13 11:25:13;;;;;;;1.23;1.07;;;37.50;53.40;;;;;;5054897;28;20952;-57
2022/07/13 11:25:40;;;;;;;1.60;1.23;;;37.40;39.30;;;;;;5054754;28;20428;-56
2022/07/13 11:28:29;;;;;;;3.80;1.20;;;36.80;45.50;;;;;;5054532;28;20433;-56
2022/07/13 11:30:56;;;;;;;1.67;1.27;;;36.70;52.40;;;;;;5054548;28;20449;-56
2022/07/13 11:33:25;;;;;;;1.50;1.30;;;36.00;39.20;;;;;;5054408;28;20563;-56
2022/07/13 11:35:52;;;;;;;3.43;1.50;;;35.30;39.90;;;;;;5054756;28;20476;-57
2022/07/13 11:38:21;;;;;;;1.30;1.20;;;35.20;37.50;;;;;;5054441;28;20999;-57
2022/07/13 11:40:48;;;;;;;1.63;1.30;;;35.40;39.60;;;;;;5054199;28;20491;-57
2022/07/13 11:43:16;;;;;;;2.90;1.20;;;35.60;39.10;;;;;;5054741;28;20445;-57
2022/07/13 11:45:43;;;;;;;2.43;2.23;;;36.50;39.10;;;;;;5054033;28;20445;-57
2022/07/13 11:48:15;;;;;;;1.43;1.33;;;36.70;42.60;;;;;;5054372;28;20452;-57
2022/07/13 11:50:48;;;;;;;1.40;1.30;;;;;;;;;;5054176;28;20479;-57
2022/07/13 11:53:22;;;;;;;1.27;1.17;;;;;;;;;;5054023;28;20483;-57
2022/07/13 11:55:50;;;;;;;1.80;1.03;;;;;;;;;;5054013;28;20551;-56
2022/07/13 11:58:24;;;;;;;1.67;1.30;;;;;;;;;;5054054;28;20545;-57
2022/07/13 12:00:51;;;;;;;1.40;1.20;;;36.50;36.20;;;;;;5054196;28;20464;-56
2022/07/13 12:03:26;;;;;;;3.80;2.20;;;36.50;36.40;;;;;;5053846;28;20544;-56
2022/07/13 12:05:59;;;;;;;1.40;1.10;;;36.30;36.60;;;;;;5054146;28;20456;-56
2022/07/13 12:08:27;;;;;;;2.60;1.40;;;35.60;35.70;;;;;;5053909;28;20437;-56
2022/07/13 12:10:56;;;;;;;1.83;1.17;;;35.80;36.80;;;;;;5053884;28;21066;-56
2022/07/13 12:13:24;;;;;;;1.40;1.17;;;36.20;37.10;;;;;;5054016;28;20466;-57
2022/07/13 12:15:51;;;;;;;2.03;1.30;;;36.50;35.80;;;;;;5054151;28;20456;-56
2022/07/13 12:18:19;;;;;;;2.03;1.17;;;37.00;36.20;;;;;;5054001;28;20445;-56
2022/07/13 12:20:46;;;;;;;2.60;1.07;;;36.70;35.50;;;;;;5053180;28;20880;-56
2022/07/13 12:23:17;;;;;;;1.40;1.30;;;35.20;35.80;;;;;;5053402;28;20449;-56
2022/07/13 12:25:47;;;;;;;1.40;1.10;;;34.80;35.90;;;;;;5053796;28;20433;-56
2022/07/13 12:28:14;;;;;;;1.70;1.30;;;34.10;36.70;;;;;;5053586;28;20453;-56
2022/07/13 12:30:58;;;;;;;2.03;1.40;;;34.40;36.30;;;;;;5053494;28;20465;-56
2022/07/13 12:33:26;;;;;;;1.20;1.10;;;34.60;37.30;;;;;;5053443;28;20441;-56
2022/07/13 12:36:04;;;;;;;1.30;1.20;;;34.70;37.00;;;;;;5053326;28;20806;-56
2022/07/13 12:38:32;;;;;;;1.30;1.20;;;34.80;37.30;;;;;;5053489;28;20433;-56
2022/07/13 12:41:01;;;;;;;1.50;1.23;;;35.00;35.80;;;;;;5053104;28;20516;-56
2022/07/13 12:43:30;;;;;;;2.03;1.20;;;35.10;36.50;;;;;;5053232;28;20449;-56
2022/07/13 12:45:59;;;;;;;3.63;1.40;;;34.30;36.20;;;;;;5053623;28;20556;-56
2022/07/13 12:48:27;;;;;;;3.57;1.20;;;34.60;37.40;;;;;;5053541;28;20451;-56
2022/07/13 12:51:01;;;;;;;3.30;1.20;;;34.40;37.20;;;;;;5052992;28;20612;-56
2022/07/13 12:53:47;;;;;;;1.67;1.40;;;34.60;37.60;;;;;;5053172;28;20479;-56
2022/07/13 12:56:15;;;;;;;1.60;1.40;;;34.70;36.40;;;;;;5053001;28;20878;-56
2022/07/13 12:58:43;;;;;;;3.20;1.40;;;34.60;37.60;;;;;;5053115;28;20533;-56
2022/07/13 13:01:11;;;;;;;1.40;1.20;;;34.60;39.10;;;;;;5052940;28;20487;-56
2022/07/13 13:03:38;;;;;;;1.97;1.20;;;34.40;37.50;;;;;;5052676;28;20481;-56
2022/07/13 13:06:06;;;;;;;2.40;1.20;;;34.10;37.20;;;;;;5053185;28;20803;-56
2022/07/13 13:08:33;;;;;;;1.27;1.10;;;34.30;38.30;;;;;;5053096;28;20448;-56